createdAt,value
2022-09-17T00:00:55.943Z,9.10
2022-09-17T00:01:55.987Z,8.98
2022-09-17T00:02:56.059Z,9.17
2022-09-17T00:03:56.000Z,9.08
2022-09-17T00:04:55.893Z,8.98
2022-09-17T00:05:55.877Z,9.00
2022-09-17T00:06:55.984Z,9.01
2022-09-17T00:07:55.845Z,8.91
2022-09-17T00:08:55.834Z,9.00
2022-09-17T00:09:55.868Z,8.98
2022-09-17T00:10:55.815Z,8.89
2022-09-17T00:11:55.796Z,9.00
2022-09-17T00:12:55.785Z,8.98
2022-09-17T00:13:55.818Z,9.01
2022-09-17T00:14:55.760Z,8.96
2022-09-17T00:15:55.873Z,9.00
2022-09-17T00:16:59.929Z,9.13
2022-09-17T00:17:56.733Z,9.08
2022-09-17T00:18:55.698Z,9.12
2022-09-17T00:19:55.683Z,9.16
2022-09-17T00:20:55.675Z,9.22
2022-09-17T00:21:55.663Z,9.20
2022-09-17T00:22:55.774Z,9.23
2022-09-17T00:23:55.716Z,9.12
2022-09-17T00:24:55.622Z,9.16
2022-09-17T00:25:55.609Z,9.26
2022-09-17T00:26:55.592Z,9.27
2022-09-17T00:27:55.576Z,9.26
2022-09-17T00:28:55.566Z,9.20
2022-09-17T00:29:55.551Z,9.32
2022-09-17T00:30:55.626Z,9.26
2022-09-17T00:31:55.525Z,9.37
2022-09-17T00:32:55.516Z,9.49
2022-09-17T00:33:55.500Z,9.56
2022-09-17T00:34:55.488Z,9.50
2022-09-17T00:35:55.467Z,9.49
2022-09-17T00:36:55.459Z,9.38
2022-09-17T00:37:55.441Z,9.48
2022-09-17T00:38:55.640Z,9.49
2022-09-17T00:39:55.491Z,9.58
2022-09-17T00:40:55.406Z,9.52
2022-09-17T00:41:55.393Z,9.48
2022-09-17T00:42:55.375Z,9.45
2022-09-17T00:43:55.360Z,9.55
2022-09-17T00:44:55.350Z,9.50
2022-09-17T00:45:55.333Z,9.56
2022-09-17T00:46:55.428Z,9.55
2022-09-17T00:47:55.310Z,9.52
2022-09-17T00:48:55.294Z,9.58
2022-09-17T00:49:55.277Z,9.63
2022-09-17T00:50:55.274Z,9.65
2022-09-17T00:52:00.129Z,9.58
2022-09-17T00:52:55.246Z,9.63
2022-09-17T00:53:55.287Z,9.42
2022-09-17T00:54:55.339Z,9.59
2022-09-17T00:55:55.201Z,9.49
2022-09-17T00:56:55.190Z,9.58
2022-09-17T00:57:55.173Z,9.70
2022-09-17T00:58:55.162Z,9.68
2022-09-17T00:59:55.143Z,9.63
2022-09-17T01:00:55.195Z,9.80
2022-09-17T01:01:55.151Z,9.78
2022-09-17T01:02:55.108Z,9.70
2022-09-17T01:03:55.090Z,9.65
2022-09-17T01:04:55.077Z,9.74
2022-09-17T01:05:55.059Z,9.60
2022-09-17T01:06:55.058Z,9.74
2022-09-17T01:07:55.039Z,9.80
2022-09-17T01:08:55.028Z,9.74
2022-09-17T01:09:55.013Z,9.81
2022-09-17T01:10:55.121Z,9.81
2022-09-17T01:11:54.980Z,9.86
2022-09-17T01:12:54.972Z,9.71
2022-09-17T01:13:54.954Z,9.62
2022-09-17T01:14:54.949Z,9.80
2022-09-17T01:15:54.989Z,9.67
2022-09-17T01:16:54.921Z,9.71
2022-09-17T01:17:54.903Z,9.85
2022-09-17T01:18:54.891Z,9.67
2022-09-17T01:19:54.874Z,9.78
2022-09-17T01:20:54.861Z,9.73
2022-09-17T01:21:54.848Z,9.80
2022-09-17T01:22:54.842Z,9.75
2022-09-17T01:23:54.934Z,9.68
2022-09-17T01:24:54.819Z,9.63
2022-09-17T01:25:54.796Z,9.70
2022-09-17T01:26:54.912Z,9.75
2022-09-17T01:27:54.773Z,9.71
2022-09-17T01:28:54.761Z,9.73
2022-09-17T01:29:54.742Z,9.81
2022-09-17T01:30:54.757Z,9.88
2022-09-17T01:31:54.821Z,9.83
2022-09-17T01:32:54.701Z,9.68
2022-09-17T01:33:54.683Z,9.81
2022-09-17T01:34:54.682Z,9.86
2022-09-17T01:35:54.662Z,9.81
2022-09-17T01:36:54.655Z,9.93
2022-09-17T01:37:54.635Z,9.81
2022-09-17T01:38:54.620Z,9.73
2022-09-17T01:39:54.659Z,9.86
2022-09-17T01:40:54.594Z,9.78
2022-09-17T01:41:54.576Z,9.75
2022-09-17T01:42:54.689Z,9.85
2022-09-17T01:43:54.551Z,9.83
2022-09-17T01:44:54.542Z,9.77
2022-09-17T01:45:54.523Z,9.92
2022-09-17T01:46:54.546Z,9.93
2022-09-17T01:47:54.500Z,9.89
2022-09-17T01:48:54.490Z,9.89
2022-09-17T01:49:54.473Z,9.75
2022-09-17T01:50:54.469Z,9.89
2022-09-17T01:51:54.446Z,9.93
2022-09-17T01:52:54.436Z,9.91
2022-09-17T01:53:54.420Z,9.89
2022-09-17T01:54:54.405Z,9.83
2022-09-17T01:55:54.395Z,9.81
2022-09-17T01:56:54.382Z,9.86
2022-09-17T01:57:54.366Z,9.81
2022-09-17T01:58:54.474Z,9.91
2022-09-17T01:59:54.335Z,9.83
2022-09-17T02:00:54.385Z,9.77
2022-09-17T02:01:54.376Z,9.83
2022-09-17T02:02:54.300Z,9.85
2022-09-17T02:03:54.285Z,9.78
2022-09-17T02:04:54.275Z,9.75
2022-09-17T02:05:54.260Z,9.71
2022-09-17T02:06:54.250Z,9.63
2022-09-17T02:07:54.232Z,9.75
2022-09-17T02:08:54.222Z,9.70
2022-09-17T02:09:54.205Z,9.71
2022-09-17T02:10:54.190Z,9.53
2022-09-17T02:11:54.174Z,9.73
2022-09-17T02:12:54.166Z,9.49
2022-09-17T02:13:54.146Z,9.45
2022-09-17T02:14:54.920Z,9.41
2022-09-17T02:15:54.177Z,9.59
2022-09-17T02:16:54.114Z,9.49
2022-09-17T02:17:54.096Z,9.45
2022-09-17T02:18:54.083Z,9.32
2022-09-17T02:19:54.069Z,9.35
2022-09-17T02:20:54.057Z,9.38
2022-09-17T02:21:54.038Z,9.37
2022-09-17T02:22:54.034Z,9.41
2022-09-17T02:23:54.016Z,9.35
2022-09-17T02:24:54.004Z,9.20
2022-09-17T02:25:53.990Z,9.17
2022-09-17T02:26:53.975Z,9.32
2022-09-17T02:27:53.958Z,9.35
2022-09-17T02:28:53.948Z,9.27
2022-09-17T02:29:53.932Z,9.24
2022-09-17T02:30:54.042Z,9.16
2022-09-17T02:31:53.932Z,9.27
2022-09-17T02:32:53.892Z,9.31
2022-09-17T02:33:53.918Z,9.19
2022-09-17T02:34:53.873Z,9.19
2022-09-17T02:35:53.854Z,9.08
2022-09-17T02:36:53.847Z,9.20
2022-09-17T02:37:53.828Z,9.12
2022-09-17T02:38:53.813Z,9.06
2022-09-17T02:39:53.824Z,9.06
2022-09-17T02:40:53.785Z,9.04
2022-09-17T02:41:53.769Z,9.16
2022-09-17T02:42:53.763Z,9.13
2022-09-17T02:43:53.748Z,9.01
2022-09-17T02:44:53.735Z,9.17
2022-09-17T02:45:53.720Z,9.15
2022-09-17T02:46:53.930Z,9.08
2022-09-17T02:47:53.686Z,9.15
2022-09-17T02:48:53.678Z,9.19
2022-09-17T02:49:53.660Z,9.17
2022-09-17T02:50:53.656Z,9.22
2022-09-17T02:51:53.639Z,9.22
2022-09-17T02:52:53.629Z,9.22
2022-09-17T02:53:53.610Z,9.15
2022-09-17T02:54:53.599Z,9.26
2022-09-17T02:55:53.586Z,9.24
2022-09-17T02:56:53.574Z,9.19
2022-09-17T02:57:53.567Z,9.26
2022-09-17T02:58:53.541Z,9.37
2022-09-17T02:59:53.525Z,9.27
2022-09-17T03:00:53.602Z,9.27
2022-09-17T03:01:53.560Z,9.35
2022-09-17T03:02:53.614Z,9.24
2022-09-17T03:03:53.473Z,9.15
2022-09-17T03:04:53.465Z,9.16
2022-09-17T03:05:53.448Z,9.08
2022-09-17T03:06:53.444Z,9.13
2022-09-17T03:07:53.424Z,9.20
2022-09-17T03:08:53.415Z,9.30
2022-09-17T03:09:53.398Z,9.23
2022-09-17T03:10:53.388Z,9.13
2022-09-17T03:11:53.371Z,9.19
2022-09-17T03:12:53.362Z,9.12
2022-09-17T03:13:53.346Z,9.10
2022-09-17T03:14:53.336Z,9.17
2022-09-17T03:15:53.378Z,9.13
2022-09-17T03:16:53.305Z,9.19
2022-09-17T03:17:53.691Z,9.15
2022-09-17T03:18:53.403Z,9.06
2022-09-17T03:19:53.316Z,9.17
2022-09-17T03:20:53.255Z,9.01
2022-09-17T03:21:53.240Z,9.13
2022-09-17T03:22:53.228Z,9.01
2022-09-17T03:23:53.209Z,8.98
2022-09-17T03:24:53.198Z,9.12
2022-09-17T03:25:53.183Z,9.12
2022-09-17T03:26:53.175Z,9.04
2022-09-17T03:27:53.162Z,8.93
2022-09-17T03:28:53.151Z,9.12
2022-09-17T03:29:53.137Z,9.03
2022-09-17T03:30:53.196Z,9.04
2022-09-17T03:31:53.101Z,8.97
2022-09-17T03:32:53.092Z,9.03
2022-09-17T03:33:53.075Z,8.96
2022-09-17T03:34:53.182Z,9.04
2022-09-17T03:35:53.049Z,8.97
2022-09-17T03:36:53.047Z,8.94
2022-09-17T03:37:53.025Z,8.96
2022-09-17T03:38:53.016Z,9.04
2022-09-17T03:39:53.088Z,8.85
2022-09-17T03:40:52.991Z,8.96
2022-09-17T03:41:52.974Z,8.96
2022-09-17T03:42:52.958Z,8.75
2022-09-17T03:43:52.943Z,8.88
2022-09-17T03:44:52.932Z,8.76
2022-09-17T03:45:52.916Z,8.76
2022-09-17T03:46:53.014Z,8.78
2022-09-17T03:47:52.897Z,8.70
2022-09-17T03:48:52.887Z,8.67
2022-09-17T03:49:52.873Z,8.57
2022-09-17T03:50:52.979Z,8.65
2022-09-17T03:51:52.841Z,8.49
2022-09-17T03:52:52.829Z,8.60
2022-09-17T03:53:52.814Z,8.61
2022-09-17T03:54:52.802Z,8.50
2022-09-17T03:55:52.787Z,8.52
2022-09-17T03:56:52.772Z,8.57
2022-09-17T03:57:52.758Z,8.54
2022-09-17T03:58:52.746Z,8.46
2022-09-17T03:59:52.730Z,8.54
2022-09-17T04:00:52.722Z,8.46
2022-09-17T04:01:52.823Z,8.52
2022-09-17T04:02:52.791Z,8.46
2022-09-17T04:03:52.680Z,8.42
2022-09-17T04:04:52.670Z,8.57
2022-09-17T04:05:52.659Z,8.68
2022-09-17T04:06:52.769Z,8.58
2022-09-17T04:07:52.627Z,8.50
2022-09-17T04:08:52.620Z,8.68
2022-09-17T04:09:52.650Z,8.65
2022-09-17T04:10:52.588Z,8.63
2022-09-17T04:11:52.569Z,8.76
2022-09-17T04:12:52.562Z,8.50
2022-09-17T04:13:52.542Z,8.58
2022-09-17T04:14:52.537Z,8.60
2022-09-17T04:15:52.586Z,8.57
2022-09-17T04:16:52.512Z,8.61
2022-09-17T04:17:52.493Z,8.52
2022-09-17T04:18:52.487Z,8.55
2022-09-17T04:19:52.472Z,8.52
2022-09-17T04:20:52.456Z,8.58
2022-09-17T04:21:52.491Z,8.50
2022-09-17T04:22:52.549Z,8.46
2022-09-17T04:23:52.414Z,8.60
2022-09-17T04:24:52.404Z,8.42
2022-09-17T04:25:52.388Z,8.57
2022-09-17T04:26:52.374Z,8.61
2022-09-17T04:27:52.358Z,8.68
2022-09-17T04:28:52.345Z,8.60
2022-09-17T04:29:52.333Z,8.61
2022-09-17T04:30:52.401Z,8.58
2022-09-17T04:31:52.305Z,8.63
2022-09-17T04:32:52.295Z,8.68
2022-09-17T04:33:52.279Z,8.55
2022-09-17T04:34:52.271Z,8.68
2022-09-17T04:35:52.254Z,8.65
2022-09-17T04:36:52.249Z,8.61
2022-09-17T04:37:52.228Z,8.63
2022-09-17T04:38:52.339Z,8.71
2022-09-17T04:39:52.269Z,8.80
2022-09-17T04:40:52.191Z,8.70
2022-09-17T04:41:52.174Z,8.75
2022-09-17T04:42:52.162Z,8.67
2022-09-17T04:43:52.145Z,8.70
2022-09-17T04:44:52.134Z,8.76
2022-09-17T04:45:52.116Z,8.73
2022-09-17T04:46:52.201Z,8.73
2022-09-17T04:47:52.090Z,8.71
2022-09-17T04:48:52.080Z,8.73
2022-09-17T04:49:52.064Z,8.70
2022-09-17T04:50:52.061Z,8.67
2022-09-17T04:51:52.042Z,8.76
2022-09-17T04:52:52.032Z,8.68
2022-09-17T04:53:52.014Z,8.73
2022-09-17T04:54:52.119Z,8.63
2022-09-17T04:55:51.984Z,8.67
2022-09-17T04:56:51.976Z,8.70
2022-09-17T04:57:52.128Z,8.61
2022-09-17T04:58:51.951Z,8.65
2022-09-17T04:59:51.934Z,8.49
2022-09-17T05:00:51.988Z,8.45
2022-09-17T05:01:51.963Z,8.49
2022-09-17T05:02:51.898Z,8.55
2022-09-17T05:03:51.881Z,8.55
2022-09-17T05:04:51.873Z,8.29
2022-09-17T05:05:51.855Z,8.50
2022-09-17T05:06:51.840Z,8.46
2022-09-17T05:07:51.823Z,8.45
2022-09-17T05:08:51.815Z,8.32
2022-09-17T05:09:51.797Z,8.36
2022-09-17T05:10:51.901Z,8.32
2022-09-17T05:11:51.774Z,8.31
2022-09-17T05:12:51.768Z,8.29
2022-09-17T05:13:51.742Z,8.20
2022-09-17T05:14:51.736Z,8.32
2022-09-17T05:15:51.754Z,8.24
2022-09-17T05:16:51.709Z,8.21
2022-09-17T05:17:51.692Z,8.31
2022-09-17T05:18:51.693Z,8.22
2022-09-17T05:19:51.667Z,8.14
2022-09-17T05:20:51.656Z,8.21
2022-09-17T05:21:51.643Z,8.17
2022-09-17T05:22:51.631Z,8.27
2022-09-17T05:23:51.610Z,8.24
2022-09-17T05:24:51.601Z,8.27
2022-09-17T05:25:51.582Z,8.22
2022-09-17T05:26:51.702Z,8.24
2022-09-17T05:27:51.560Z,8.25
2022-09-17T05:28:51.548Z,8.32
2022-09-17T05:29:51.534Z,8.27
2022-09-17T05:30:51.537Z,8.21
2022-09-17T05:31:51.502Z,8.42
2022-09-17T05:32:51.491Z,8.28
2022-09-17T05:33:51.529Z,8.34
2022-09-17T05:34:51.467Z,8.40
2022-09-17T05:35:51.449Z,8.45
2022-09-17T05:36:51.440Z,8.47
2022-09-17T05:37:51.424Z,8.47
2022-09-17T05:38:51.419Z,8.50
2022-09-17T05:39:51.454Z,8.63
2022-09-17T05:40:51.392Z,8.39
2022-09-17T05:41:51.374Z,8.47
2022-09-17T05:42:51.483Z,8.60
2022-09-17T05:43:51.347Z,8.40
2022-09-17T05:44:51.335Z,8.57
2022-09-17T05:45:51.321Z,8.64
2022-09-17T05:46:51.338Z,8.70
2022-09-17T05:47:51.289Z,8.68
2022-09-17T05:48:51.280Z,8.70
2022-09-17T05:49:51.262Z,8.79
2022-09-17T05:50:51.257Z,8.85
2022-09-17T05:51:51.234Z,8.79
2022-09-17T05:52:51.226Z,8.94
2022-09-17T05:53:51.312Z,8.88
2022-09-17T05:54:51.201Z,9.04
2022-09-17T05:55:51.190Z,9.10
2022-09-17T05:56:51.226Z,9.03
2022-09-17T05:57:51.159Z,9.15
2022-09-17T05:58:51.426Z,9.13
2022-09-17T05:59:51.129Z,9.06
2022-09-17T06:00:51.124Z,9.20
2022-09-17T06:01:51.185Z,9.10
2022-09-17T06:02:51.138Z,8.97
2022-09-17T06:03:51.088Z,9.08
2022-09-17T06:04:51.071Z,8.98
2022-09-17T06:05:51.053Z,8.98
2022-09-17T06:06:51.044Z,8.89
2022-09-17T06:07:51.026Z,9.00
2022-09-17T06:08:51.020Z,8.94
2022-09-17T06:09:51.001Z,8.85
2022-09-17T06:10:50.988Z,8.91
2022-09-17T06:11:50.969Z,9.20
2022-09-17T06:12:50.960Z,9.19
2022-09-17T06:13:50.947Z,9.17
2022-09-17T06:14:51.052Z,9.08
2022-09-17T06:15:50.955Z,9.16
2022-09-17T06:16:50.908Z,9.24
2022-09-17T06:17:50.889Z,9.75
2022-09-17T06:18:50.885Z,9.77
2022-09-17T06:19:50.869Z,10.38
2022-09-17T06:20:50.857Z,10.73
2022-09-17T06:21:50.843Z,11.01
2022-09-17T06:22:50.830Z,11.21
2022-09-17T06:23:50.814Z,11.48
2022-09-17T06:24:50.804Z,11.84
2022-09-17T06:25:50.788Z,12.03
2022-09-17T06:26:50.772Z,12.12
2022-09-17T06:27:50.757Z,12.36
2022-09-17T06:28:50.746Z,12.52
2022-09-17T06:29:50.735Z,12.33
2022-09-17T06:30:50.836Z,12.23
2022-09-17T06:31:50.789Z,12.43
2022-09-17T06:32:50.688Z,12.80
2022-09-17T06:33:50.680Z,13.04
2022-09-17T06:34:50.667Z,13.19
2022-09-17T06:35:50.658Z,13.51
2022-09-17T06:36:50.641Z,13.87
2022-09-17T06:37:50.633Z,13.55
2022-09-17T06:38:50.614Z,13.01
2022-09-17T06:39:50.653Z,12.36
2022-09-17T06:40:50.585Z,12.08
2022-09-17T06:41:50.575Z,11.94
2022-09-17T06:42:50.554Z,11.90
2022-09-17T06:43:50.543Z,11.90
2022-09-17T06:44:50.529Z,11.98
2022-09-17T06:45:50.518Z,12.08
2022-09-17T06:46:50.716Z,12.00
2022-09-17T06:47:50.493Z,11.98
2022-09-17T06:48:50.474Z,11.78
2022-09-17T06:49:50.462Z,11.85
2022-09-17T06:50:50.448Z,11.87
2022-09-17T06:51:50.437Z,11.64
2022-09-17T06:52:50.426Z,11.62
2022-09-17T06:53:50.414Z,11.45
2022-09-17T06:54:50.400Z,11.24
2022-09-17T06:55:50.385Z,11.20
2022-09-17T06:56:50.367Z,11.03
2022-09-17T06:57:50.359Z,10.99
2022-09-17T06:58:50.336Z,10.88
2022-09-17T06:59:50.323Z,10.88
2022-09-17T07:00:50.359Z,10.88
2022-09-17T07:01:50.360Z,10.76
2022-09-17T07:02:50.413Z,10.76
2022-09-17T07:03:50.282Z,10.65
2022-09-17T07:04:50.265Z,10.55
2022-09-17T07:05:50.253Z,10.49
2022-09-17T07:06:50.232Z,10.36
2022-09-17T07:07:50.226Z,10.52
2022-09-17T07:08:50.205Z,10.55
2022-09-17T07:09:50.193Z,10.66
2022-09-17T07:10:50.529Z,10.73
2022-09-17T07:11:50.171Z,10.86
2022-09-17T07:12:50.247Z,11.23
2022-09-17T07:13:50.144Z,11.74
2022-09-17T07:14:50.130Z,11.56
2022-09-17T07:15:50.193Z,11.56
2022-09-17T07:16:50.105Z,11.49
2022-09-17T07:20:46.355Z,11.41
2022-09-17T07:21:46.225Z,11.42
2022-09-17T07:22:46.208Z,11.51
2022-09-17T07:23:46.241Z,11.49
2022-09-17T07:24:46.178Z,11.39
2022-09-17T07:25:46.168Z,11.39
2022-09-17T07:26:46.152Z,11.39
2022-09-17T07:27:46.139Z,11.33
2022-09-17T07:28:46.125Z,11.28
2022-09-17T07:29:46.114Z,11.38
2022-09-17T07:30:46.096Z,11.36
2022-09-17T07:31:46.176Z,11.21
2022-09-17T07:32:46.076Z,11.24
2022-09-17T07:33:46.062Z,11.31
2022-09-17T07:34:46.046Z,11.17
2022-09-17T07:35:46.039Z,10.95
2022-09-17T07:36:46.151Z,11.06
2022-09-17T07:37:46.005Z,10.84
2022-09-17T07:42:22.176Z,10.95
2022-09-17T07:43:22.167Z,10.84
2022-09-17T07:44:22.158Z,10.88
2022-09-17T07:45:22.142Z,10.90
2022-09-17T07:46:22.222Z,10.83
2022-09-17T07:47:22.119Z,10.83
2022-09-17T07:48:22.101Z,10.86
2022-09-17T07:49:22.090Z,10.72
2022-09-17T07:50:22.127Z,10.72
2022-09-17T07:51:22.124Z,10.76
2022-09-17T07:52:22.173Z,10.81
2022-09-17T07:53:22.037Z,10.68
2022-09-17T07:54:22.021Z,10.69
2022-09-17T07:55:22.005Z,10.75
2022-09-17T07:56:21.989Z,10.65
2022-09-17T07:57:21.982Z,10.70
2022-09-17T07:58:21.977Z,10.70
2022-09-17T07:59:21.956Z,10.60
2022-09-17T08:00:22.015Z,10.75
2022-09-17T08:01:21.961Z,10.63
2022-09-17T08:02:24.141Z,10.78
2022-09-17T08:03:21.897Z,10.76
2022-09-17T08:04:21.882Z,10.75
2022-09-17T08:05:21.874Z,10.73
2022-09-17T08:06:21.854Z,10.83
2022-09-17T08:07:21.843Z,10.94
2022-09-17T08:08:21.949Z,11.01
2022-09-17T08:09:21.818Z,10.99
2022-09-17T08:10:21.863Z,11.13
2022-09-17T08:12:21.777Z,10.95
2022-09-17T08:13:21.769Z,10.86
2022-09-17T08:14:25.660Z,10.78
2022-09-17T08:15:22.763Z,10.83
2022-09-17T08:16:21.780Z,10.83
2022-09-17T08:17:21.714Z,10.80
2022-09-17T08:18:21.691Z,10.83
2022-09-17T08:19:21.681Z,10.80
2022-09-17T08:20:21.797Z,10.88
2022-09-17T08:21:21.658Z,10.90
2022-09-17T08:22:21.639Z,10.94
2022-09-17T08:23:21.631Z,10.95
2022-09-17T08:24:21.748Z,11.30
2022-09-17T08:25:21.611Z,11.30
2022-09-17T08:26:21.590Z,11.59
2022-09-17T08:27:21.579Z,11.56
2022-09-17T08:28:21.563Z,11.77
2022-09-17T08:29:21.560Z,11.88
2022-09-17T08:30:21.650Z,12.48
2022-09-17T08:31:21.571Z,13.01
2022-09-17T08:32:21.513Z,12.99
2022-09-17T08:33:21.499Z,12.95
2022-09-17T08:34:21.484Z,12.85
2022-09-17T08:35:21.469Z,12.88
2022-09-17T08:36:21.456Z,12.87
2022-09-17T08:37:21.450Z,12.80
2022-09-17T08:38:21.429Z,12.84
2022-09-17T08:39:21.413Z,12.95
2022-09-17T08:40:21.681Z,12.71
2022-09-17T08:41:21.385Z,12.59
2022-09-17T08:42:21.380Z,12.40
2022-09-17T08:43:21.361Z,12.34
2022-09-17T08:44:21.347Z,12.16
2022-09-17T08:45:21.328Z,12.15
2022-09-17T08:46:21.470Z,12.12
2022-09-17T08:47:21.302Z,12.34
2022-09-17T08:48:21.293Z,12.22
2022-09-17T08:49:21.274Z,12.16
2022-09-17T08:50:21.274Z,12.04
2022-09-17T08:51:21.256Z,12.03
2022-09-17T08:52:21.252Z,12.04
2022-09-17T08:53:21.242Z,12.03
2022-09-17T08:54:21.217Z,11.97
2022-09-17T08:55:21.206Z,12.03
2022-09-17T08:56:21.311Z,11.97
2022-09-17T08:57:21.177Z,12.04
2022-09-17T08:58:21.160Z,12.19
2022-09-17T08:59:21.863Z,12.36
2022-09-17T09:00:21.134Z,12.40
2022-09-17T09:01:21.191Z,12.36
2022-09-17T09:02:21.258Z,12.33
2022-09-17T09:03:21.090Z,12.31
2022-09-17T09:04:21.120Z,12.25
2022-09-17T09:05:21.063Z,12.26
2022-09-17T09:06:21.049Z,12.31
2022-09-17T09:07:21.030Z,12.41
2022-09-17T09:08:21.027Z,12.61
2022-09-17T09:09:21.076Z,12.88
2022-09-17T09:10:20.998Z,12.70
2022-09-17T09:11:20.981Z,12.73
2022-09-17T09:12:21.087Z,12.56
2022-09-17T09:13:20.952Z,12.51
2022-09-17T09:14:20.947Z,12.58
2022-09-17T09:15:20.927Z,12.52
2022-09-17T09:16:20.974Z,12.59
2022-09-17T09:17:20.903Z,12.95
2022-09-17T09:18:20.895Z,13.06
2022-09-17T09:19:20.874Z,13.54
2022-09-17T09:20:20.867Z,14.01
2022-09-17T09:21:20.849Z,14.44
2022-09-17T09:22:20.834Z,14.98
2022-09-17T09:23:20.820Z,15.13
2022-09-17T09:24:20.807Z,15.07
2022-09-17T09:25:20.789Z,15.22
2022-09-17T09:26:20.781Z,15.34
2022-09-17T09:27:20.763Z,15.51
2022-09-17T09:28:20.871Z,15.74
2022-09-17T09:29:20.736Z,15.70
2022-09-17T09:30:20.730Z,15.91
2022-09-17T09:31:20.830Z,15.85
2022-09-17T09:32:20.705Z,15.41
2022-09-17T09:33:20.692Z,15.00
2022-09-17T09:34:20.685Z,14.78
2022-09-17T09:35:20.662Z,14.44
2022-09-17T09:36:20.651Z,14.24
2022-09-17T09:37:20.628Z,14.02
2022-09-17T09:38:20.628Z,14.01
2022-09-17T09:39:20.617Z,13.91
2022-09-17T09:40:20.691Z,14.46
2022-09-17T09:41:20.584Z,15.34
2022-09-17T09:42:20.587Z,15.46
2022-09-17T09:43:20.553Z,15.55
2022-09-17T09:44:20.662Z,15.59
2022-09-17T09:45:20.527Z,15.74
2022-09-17T09:46:20.574Z,16.01
2022-09-17T09:47:20.543Z,15.85
2022-09-17T09:48:20.544Z,15.80
2022-09-17T09:49:20.669Z,15.66
2022-09-17T09:50:20.464Z,15.73
2022-09-17T09:51:20.450Z,15.74
2022-09-17T09:52:20.441Z,15.80
2022-09-17T09:53:20.419Z,15.99
2022-09-17T09:54:20.592Z,16.27
2022-09-17T09:55:24.489Z,16.06
2022-09-17T09:56:21.399Z,15.73
2022-09-17T09:57:20.361Z,15.76
2022-09-17T09:58:20.355Z,15.78
2022-09-17T09:59:20.339Z,15.80
2022-09-17T10:00:20.449Z,15.77
2022-09-17T10:01:20.394Z,15.73
2022-09-17T10:02:20.418Z,15.66
2022-09-17T10:03:20.292Z,15.55
2022-09-17T10:04:20.282Z,15.55
2022-09-17T10:05:20.258Z,15.18
2022-09-17T10:06:20.245Z,14.63
2022-09-17T10:07:20.235Z,14.27
2022-09-17T10:08:20.242Z,14.34
2022-09-17T10:09:20.202Z,14.39
2022-09-17T10:10:20.197Z,14.23
2022-09-17T10:11:20.181Z,14.29
2022-09-17T10:12:20.195Z,14.24
2022-09-17T10:13:20.153Z,14.20
2022-09-17T10:14:20.148Z,14.41
2022-09-17T10:15:20.129Z,14.54
2022-09-17T10:16:20.321Z,14.64
2022-09-17T10:17:20.098Z,14.64
2022-09-17T10:18:20.087Z,14.53
2022-09-17T10:19:20.077Z,14.42
2022-09-17T10:20:23.153Z,14.64
2022-09-17T10:21:20.045Z,14.83
2022-09-17T10:22:20.036Z,15.01
2022-09-17T10:23:20.072Z,16.32
2022-09-17T10:24:20.013Z,17.07
2022-09-17T10:25:19.993Z,17.40
2022-09-17T10:26:19.976Z,17.58
2022-09-17T10:27:19.959Z,17.86
2022-09-17T10:28:19.960Z,18.51
2022-09-17T10:29:19.942Z,18.66
2022-09-17T10:30:19.933Z,18.34
2022-09-17T10:31:19.945Z,18.25
2022-09-17T10:32:20.047Z,17.73
2022-09-17T10:33:19.892Z,17.25
2022-09-17T10:34:19.874Z,16.91
2022-09-17T10:35:19.868Z,16.27
2022-09-17T10:36:19.858Z,15.95
2022-09-17T10:37:19.848Z,15.48
2022-09-17T10:38:19.836Z,15.22
2022-09-17T10:39:19.809Z,15.16
2022-09-17T10:40:20.074Z,15.15
2022-09-17T10:41:19.788Z,15.18
2022-09-17T10:42:19.851Z,14.87
2022-09-17T10:43:19.752Z,14.61
2022-09-17T10:44:19.748Z,14.56
2022-09-17T10:45:19.734Z,14.21
2022-09-17T10:46:22.792Z,14.19
2022-09-17T10:47:19.844Z,14.13
2022-09-17T10:48:19.832Z,14.05
2022-09-17T10:49:19.686Z,14.01
2022-09-17T10:50:19.679Z,14.26
2022-09-17T10:51:19.654Z,14.46
2022-09-17T10:52:19.674Z,14.69
2022-09-17T10:53:19.625Z,14.72
2022-09-17T10:54:19.618Z,14.75
2022-09-17T10:55:19.600Z,14.91
2022-09-17T10:56:19.589Z,14.95
2022-09-17T10:57:19.570Z,14.57
2022-09-17T10:58:19.555Z,14.56
2022-09-17T10:59:19.537Z,14.63
2022-09-17T11:00:19.527Z,14.61
2022-09-17T11:01:19.575Z,14.64
2022-09-17T11:02:19.620Z,14.60
2022-09-17T11:03:19.483Z,14.82
2022-09-17T11:04:19.600Z,14.95
2022-09-17T11:05:19.458Z,14.95
2022-09-17T11:06:19.453Z,15.00
2022-09-17T11:07:19.433Z,15.13
2022-09-17T11:08:19.427Z,15.33
2022-09-17T11:09:19.409Z,15.53
2022-09-17T11:10:19.397Z,15.93
2022-09-17T11:11:19.382Z,16.65
2022-09-17T11:12:19.379Z,17.33
2022-09-17T11:13:19.358Z,17.87
2022-09-17T11:14:19.340Z,17.87
2022-09-17T11:15:19.324Z,17.95
2022-09-17T11:16:19.386Z,17.96
2022-09-17T11:17:19.298Z,18.01
2022-09-17T11:18:19.289Z,18.02
2022-09-17T11:19:19.272Z,17.83
2022-09-17T11:20:19.384Z,17.62
2022-09-17T11:21:19.241Z,17.27
2022-09-17T11:22:19.247Z,16.84
2022-09-17T11:23:19.227Z,17.14
2022-09-17T11:24:19.437Z,17.06
2022-09-17T11:25:19.196Z,16.41
2022-09-17T11:26:19.181Z,15.98
2022-09-17T11:27:19.164Z,15.99
2022-09-17T11:28:19.187Z,15.66
2022-09-17T11:29:19.137Z,15.64
2022-09-17T11:30:19.132Z,15.84
2022-09-17T11:31:23.881Z,15.70
2022-09-17T11:32:19.107Z,15.86
2022-09-17T11:33:19.091Z,16.85
2022-09-17T11:34:19.080Z,17.77
2022-09-17T11:35:19.062Z,17.70
2022-09-17T11:36:19.174Z,16.98
2022-09-17T11:37:19.036Z,16.63
2022-09-17T11:38:19.022Z,16.27
2022-09-17T11:39:19.006Z,16.52
2022-09-17T11:40:19.038Z,16.63
2022-09-17T11:41:18.978Z,17.00
2022-09-17T11:42:19.001Z,17.74
2022-09-17T11:43:18.958Z,18.04
2022-09-17T11:44:18.947Z,18.25
2022-09-17T11:45:18.966Z,18.46
2022-09-17T11:46:18.987Z,18.89
2022-09-17T11:47:18.900Z,19.20
2022-09-17T11:48:18.897Z,18.96
2022-09-17T11:49:18.873Z,18.53
2022-09-17T11:50:18.864Z,18.50
2022-09-17T11:51:18.847Z,18.62
2022-09-17T11:52:18.953Z,18.57
2022-09-17T11:53:18.820Z,18.31
2022-09-17T11:54:18.815Z,18.14
2022-09-17T11:55:18.799Z,18.26
2022-09-17T11:56:18.799Z,17.98
2022-09-17T11:57:18.771Z,17.28
2022-09-17T11:58:18.756Z,16.98
2022-09-17T11:59:18.737Z,16.99
2022-09-17T12:00:18.737Z,16.87
2022-09-17T12:01:18.723Z,16.65
2022-09-17T12:02:18.756Z,16.62
2022-09-17T12:03:18.725Z,16.77
2022-09-17T12:04:18.678Z,17.28
2022-09-17T12:05:18.656Z,17.80
2022-09-17T12:06:18.652Z,17.86
2022-09-17T12:07:18.634Z,18.07
2022-09-17T12:08:18.741Z,17.95
2022-09-17T12:09:18.606Z,17.80
2022-09-17T12:10:18.602Z,17.95
2022-09-17T12:11:18.586Z,18.83
2022-09-17T12:12:44.980Z,19.62
2022-09-17T12:13:19.580Z,19.70
2022-09-17T12:14:18.543Z,19.09
2022-09-17T12:15:18.546Z,19.47
2022-09-17T12:16:18.565Z,19.75
2022-09-17T12:17:18.497Z,20.40
2022-09-17T12:18:33.504Z,20.69
2022-09-17T12:19:19.510Z,19.98
2022-09-17T12:20:18.473Z,19.40
2022-09-17T12:21:18.453Z,18.76
2022-09-17T12:22:18.441Z,18.53
2022-09-17T12:23:18.428Z,18.23
2022-09-17T12:24:18.534Z,17.92
2022-09-17T12:25:18.405Z,17.53
2022-09-17T12:26:18.391Z,17.45
2022-09-17T12:27:18.376Z,17.06
2022-09-17T12:28:18.355Z,17.06
2022-09-17T12:29:18.375Z,16.80
2022-09-17T12:30:22.581Z,16.59
2022-09-17T12:31:18.366Z,16.25
2022-09-17T12:32:18.303Z,16.07
2022-09-17T12:33:18.288Z,15.92
2022-09-17T12:34:18.285Z,15.71
2022-09-17T12:35:18.267Z,15.56
2022-09-17T12:36:18.265Z,15.62
2022-09-17T12:37:18.239Z,15.68
2022-09-17T12:38:18.234Z,15.84
2022-09-17T12:39:18.218Z,15.98
2022-09-17T12:40:18.366Z,16.03
2022-09-17T12:41:18.185Z,16.18
2022-09-17T12:42:18.175Z,16.17
2022-09-17T12:43:18.158Z,16.25
2022-09-17T12:44:18.151Z,16.33
2022-09-17T12:45:18.131Z,16.34
2022-09-17T12:46:18.155Z,16.23
2022-09-17T12:47:18.105Z,16.30
2022-09-17T12:48:18.092Z,16.04
2022-09-17T12:49:18.083Z,15.81
2022-09-17T12:50:18.081Z,15.71
2022-09-17T12:51:18.056Z,15.60
2022-09-17T12:52:18.041Z,15.67
2022-09-17T12:53:18.033Z,16.51
2022-09-17T12:54:18.016Z,17.51
2022-09-17T12:55:18.006Z,17.83
2022-09-17T12:56:18.104Z,17.84
2022-09-17T12:57:17.986Z,17.81
2022-09-17T12:58:17.958Z,17.51
2022-09-17T12:59:17.953Z,17.32
2022-09-17T13:00:17.935Z,16.99
2022-09-17T13:01:17.999Z,16.85
2022-09-17T13:02:17.997Z,16.44
2022-09-17T13:03:17.894Z,16.18
2022-09-17T13:04:17.875Z,16.23
2022-09-17T13:05:17.871Z,16.18
2022-09-17T13:06:17.906Z,16.34
2022-09-17T13:07:17.849Z,16.37
2022-09-17T13:08:17.829Z,16.69
2022-09-17T13:09:17.821Z,17.45
2022-09-17T13:10:17.806Z,17.83
2022-09-17T13:11:17.795Z,18.01
2022-09-17T13:12:17.900Z,17.57